Time;durP1;ratioP1;P1;durP2;ratioP2;P2;SDS_P1;SDS_P2;PMS_P1;PMS_P2;Temp;Humidity;BMP_temperature;BMP_pressure;BME280_temperature;BME280_humidity;BME280_pressure;Samples;Min_cycle;Max_cycle;Signal;HPM_P1;HPM_P2
2022/05/07 00:01:35;;;;;;;0.03;0.03;;;10.90;99.90;9.80;97790.00;;;;5045656;28;20199;-71
2022/05/07 00:04:03;;;;;;;0.10;0.10;;;11.00;99.90;9.70;97791.00;;;;5052496;28;20214;-70
2022/05/07 00:06:31;;;;;;;0.10;0.10;;;11.00;99.90;9.70;97790.00;;;;5052413;28;20200;-70
2022/05/07 00:08:59;;;;;;;0.10;0.10;;;11.00;99.90;9.70;97779.00;;;;5052672;28;20198;-71
2022/05/07 00:11:27;;;;;;;0.10;0.10;;;11.00;99.90;9.70;97785.00;;;;5052226;28;20681;-70
2022/05/07 00:13:57;;;;;;;0.10;0.10;;;10.90;99.90;9.50;97789.00;;;;5053155;28;20202;-71
2022/05/07 00:19:10;;;;;;;0.10;0.10;;;10.60;1.00;9.40;97784.00;;;;5052509;28;20190;-70
2022/05/07 00:21:38;;;;;;;0.00;0.00;;;10.50;1.00;9.30;97785.00;;;;5046784;28;20569;-70
2022/05/07 00:24:07;;;;;;;0.10;0.10;;;10.40;1.00;9.40;97777.00;;;;5052659;28;20218;-71
2022/05/07 00:26:35;;;;;;;0.10;0.10;;;10.50;1.00;9.40;97772.00;;;;5066979;28;20207;-70
2022/05/07 00:29:04;;;;;;;0.10;0.10;;;10.50;1.00;9.20;97787.00;;;;5046614;28;20657;-71
2022/05/07 00:31:32;;;;;;;0.10;0.10;;;10.40;1.00;9.10;97777.00;;;;5067386;28;20199;-70
2022/05/07 00:34:00;;;;;;;0.10;0.10;;;10.30;1.00;9.20;97776.00;;;;5060141;28;20210;-70
2022/05/07 00:36:31;;;;;;;0.10;0.10;;;10.40;1.00;9.30;97767.00;;;;5052388;28;20198;-71
2022/05/07 00:38:59;;;;;;;0.10;0.10;;;10.40;1.00;9.20;97774.00;;;;5052464;28;20201;-71
2022/05/07 00:41:27;;;;;;;0.10;0.10;;;10.40;1.00;9.10;97771.00;;;;5051935;28;20199;-69
2022/05/07 00:43:55;;;;;;;0.10;0.10;;;10.40;1.00;9.10;97779.00;;;;5049936;28;20297;-70
2022/05/07 00:46:27;;;;;;;0.10;0.10;;;10.30;1.00;8.90;97770.00;;;;5051041;28;20680;-70
2022/05/07 00:48:57;;;;;;;0.10;0.10;;;10.10;1.00;8.80;97771.00;;;;5052351;28;20318;-70
2022/05/07 00:51:33;;;;;;;0.10;0.10;;;9.90;1.00;8.70;97760.00;;;;5053332;28;20209;-70
2022/05/07 00:54:04;;;;;;;0.10;0.10;;;9.90;1.00;8.80;97769.00;;;;5056160;28;20197;-70
2022/05/07 00:56:33;;;;;;;0.10;0.10;;;9.90;1.00;8.90;97766.00;;;;5067870;28;20292;-71
2022/05/07 00:59:03;;;;;;;0.10;0.10;;;10.00;1.00;8.80;97758.00;;;;5051780;28;20587;-70
2022/05/07 01:01:33;;;;;;;0.10;0.10;;;9.90;1.00;8.90;97754.00;;;;5047092;28;20277;-70
2022/05/07 01:04:02;;;;;;;0.10;0.10;;;10.00;1.00;8.80;97753.00;;;;5050778;28;20213;-71
2022/05/07 01:06:32;;;;;;;0.10;0.10;;;10.00;1.00;8.80;97760.00;;;;5058280;28;20195;-71
2022/05/07 01:09:01;;;;;;;0.10;0.10;;;10.00;1.00;8.80;97773.00;;;;5054257;28;20198;-70
2022/05/07 01:11:32;;;;;;;0.10;0.10;;;10.00;1.00;8.80;97756.00;;;;5066653;28;20293;-70
2022/05/07 01:14:02;;;;;;;0.10;0.10;;;10.00;1.00;8.50;97753.00;;;;5047475;28;20302;-71
2022/05/07 01:16:34;;;;;;;0.10;0.10;;;9.70;1.00;8.40;97744.00;;;;5046207;28;20195;-70
2022/05/07 01:19:02;;;;;;;0.10;0.10;;;9.50;1.00;8.30;97752.00;;;;5044306;28;20202;-69
2022/05/07 01:21:31;;;;;;;0.10;0.10;;;9.40;48.00;8.40;97753.00;;;;5050594;28;20206;-70
2022/05/07 01:24:00;;;;;;;0.10;0.10;;;9.50;1.00;8.40;97759.00;;;;5067258;28;20226;-70
2022/05/07 01:26:33;;;;;;;0.03;0.03;;;9.60;1.00;8.30;97752.00;;;;5049231;28;20695;-70
2022/05/07 01:29:04;;;;;;;0.10;0.10;;;9.40;1.00;8.30;97740.00;;;;5067587;28;20198;-71
2022/05/07 01:31:36;;;;;;;0.10;0.10;;;9.50;1.00;8.20;97737.00;;;;5069937;28;20615;-70
2022/05/07 01:34:04;;;;;;;0.10;0.10;;;9.50;1.00;8.20;97744.00;;;;5045349;28;20228;-70
2022/05/07 01:36:38;;;;;;;0.10;0.10;;;9.50;1.00;8.10;97742.00;;;;5062583;28;20218;-71
2022/05/07 01:39:11;;;;;;;0.10;0.10;;;9.40;1.00;7.90;97732.00;;;;5054698;28;20237;-70
2022/05/07 01:41:39;;;;;;;0.10;0.10;;;9.20;99.90;7.90;97734.00;;;;5058365;28;20217;-70
2022/05/07 01:44:08;;;;;;;0.10;0.10;;;9.20;99.90;8.00;97739.00;;;;5049211;28;20745;-71
2022/05/07 01:49:26;;;;;;;0.10;0.10;;;9.00;37.10;7.80;97730.00;;;;5059027;28;20724;-70
2022/05/07 01:51:56;;;;;;;0.10;0.10;;;8.90;99.90;7.80;97735.00;;;;5050001;28;20397;-70
2022/05/07 01:54:24;;;;;;;0.00;0.00;;;8.90;99.90;7.80;97725.00;;;;5065948;28;20218;-71
2022/05/07 01:56:52;;;;;;;0.10;0.10;;;8.90;99.90;7.80;97731.00;;;;5049590;28;20631;-71
2022/05/07 01:59:20;;;;;;;0.10;0.10;;;8.90;99.90;7.80;97746.00;;;;5066217;28;20682;-70
2022/05/07 02:01:51;;;;;;;0.10;0.10;;;8.90;99.30;7.80;97735.00;;;;5049894;28;20563;-70
2022/05/07 02:04:21;;;;;;;0.10;0.10;;;9.00;45.80;7.70;97735.00;;;;5057646;28;20610;-71
2022/05/07 02:06:50;;;;;;;0.10;0.10;;;8.80;87.40;7.70;97744.00;;;;5049431;28;20285;-70
2022/05/07 02:09:19;;;;;;;0.10;0.10;;;8.90;99.90;7.70;97733.00;;;;5044562;28;20660;-70
2022/05/07 02:11:48;;;;;;;0.10;0.10;;;8.90;49.00;7.70;97740.00;;;;5066469;28;20198;-70
2022/05/07 02:14:16;;;;;;;0.10;0.10;;;8.90;1.00;7.70;97741.00;;;;5069217;28;20274;-71
2022/05/07 02:16:47;;;;;;;0.10;0.10;;;8.90;1.00;7.70;97730.00;;;;5067837;28;20191;-71
2022/05/07 02:19:15;;;;;;;0.10;0.10;;;8.90;1.00;7.70;97735.00;;;;5067461;28;20819;-69
2022/05/07 02:21:43;;;;;;;0.10;0.10;;;8.90;1.00;7.70;97738.00;;;;5066350;28;20656;-72
2022/05/07 02:24:11;;;;;;;0.10;0.10;;;8.90;1.00;7.60;97737.00;;;;5050510;28;20213;-72
2022/05/07 02:26:42;;;;;;;0.10;0.10;;;8.90;1.00;7.50;97743.00;;;;5048835;28;20190;-71
2022/05/07 02:29:13;;;;;;;0.10;0.10;;;8.80;1.00;7.20;97737.00;;;;5060303;28;20289;-72
2022/05/07 02:32:03;;;;;;;0.10;0.10;;;8.70;1.00;7.50;97727.00;;;;5054184;28;20202;-71
2022/05/07 02:34:32;;;;;;;0.08;0.08;;;8.80;1.00;7.60;97738.00;;;;5073634;28;20568;-71
2022/05/07 02:37:03;;;;;;;0.08;0.08;;;8.80;1.00;7.40;97732.00;;;;5076616;28;20220;-71
2022/05/07 02:39:33;;;;;;;0.10;0.10;;;8.70;1.00;7.30;97728.00;;;;5061207;28;20263;-71
2022/05/07 02:44:49;;;;;;;0.10;0.10;;;8.30;99.90;7.00;97719.00;;;;5057925;28;20228;-71
2022/05/07 02:47:17;;;;;;;0.10;0.10;;;8.20;99.90;7.00;97724.00;;;;5054749;28;20228;-71
2022/05/07 02:49:45;;;;;;;0.10;0.10;;;8.10;99.90;7.00;97723.00;;;;5052160;28;20596;-69
2022/05/07 02:52:14;;;;;;;0.10;0.10;;;8.10;99.90;7.00;97727.00;;;;5069766;28;20198;-69
2022/05/07 02:54:42;;;;;;;0.03;0.03;;;8.10;99.90;7.10;97737.00;;;;5067648;28;20229;-69
2022/05/07 02:57:12;;;;;;;0.10;0.10;;;8.10;99.90;7.10;97732.00;;;;5032278;28;20207;-69
2022/05/07 02:59:41;;;;;;;0.05;0.05;;;8.10;99.90;7.10;97732.00;;;;5061201;28;20244;-69
2022/05/07 03:02:10;;;;;;;0.10;0.10;;;8.10;99.90;7.10;97731.00;;;;5069393;28;20223;-69
2022/05/07 03:04:38;;;;;;;0.00;0.00;;;8.30;99.90;7.10;97741.00;;;;5050919;28;20337;-69
2022/05/07 03:07:06;;;;;;;0.10;0.10;;;8.20;99.90;7.10;97734.00;;;;5068837;28;20220;-69
2022/05/07 03:09:36;;;;;;;0.10;0.10;;;8.20;99.90;7.20;97736.00;;;;5068892;28;20191;-69
2022/05/07 03:12:05;;;;;;;0.10;0.10;;;8.20;99.90;7.10;97747.00;;;;5052870;28;20209;-69
2022/05/07 03:14:34;;;;;;;0.10;0.10;;;8.20;99.90;7.10;97733.00;;;;5069306;28;20260;-69
2022/05/07 03:17:02;;;;;;;0.10;0.10;;;8.30;99.90;7.00;97722.00;;;;5069358;28;20226;-69
2022/05/07 03:19:30;;;;;;;0.10;0.10;;;8.10;99.90;7.00;97667.00;;;;5070963;28;20251;-69
2022/05/07 03:21:58;;;;;;;0.10;0.10;;;8.10;99.90;7.00;97730.00;;;;5052693;28;20194;-70
2022/05/07 03:24:28;;;;;;;0.10;0.10;;;8.10;99.90;7.10;97742.00;;;;5052470;28;20218;-70
2022/05/07 03:27:00;;;;;;;0.10;0.10;;;8.20;99.90;7.20;97749.00;;;;5052122;28;20285;-70
2022/05/07 03:29:28;;;;;;;0.10;0.10;;;8.30;67.30;7.20;97736.00;;;;5053165;28;20204;-69
2022/05/07 03:32:08;;;;;;;0.10;0.10;;;8.30;1.00;6.80;97730.00;;;;5069070;28;20216;-70
2022/05/07 03:34:43;;;;;;;0.10;0.10;;;8.00;1.00;6.90;97735.00;;;;5068586;28;20642;-70
2022/05/07 03:37:12;;;;;;;0.10;0.10;;;8.10;1.00;7.00;97731.00;;;;5051765;28;20595;-70
2022/05/07 03:39:41;;;;;;;0.10;0.10;;;8.10;1.00;6.90;97743.00;;;;5051901;28;20772;-68
2022/05/07 03:42:10;;;;;;;0.10;0.10;;;8.10;1.00;6.80;97728.00;;;;5064990;28;20271;-69
2022/05/07 03:44:38;;;;;;;0.10;0.10;;;8.10;1.00;6.70;97722.00;;;;5065862;28;20219;-69
2022/05/07 03:47:08;;;;;;;0.10;0.10;;;7.90;1.00;6.50;97733.00;;;;5046352;28;20218;-69
2022/05/07 03:49:36;;;;;;;0.10;0.10;;;7.70;1.00;6.50;97741.00;;;;5059938;28;20911;-69
2022/05/07 03:54:51;;;;;;;0.10;0.10;;;7.70;24.90;6.50;97723.00;;;;5050466;28;20218;-69
2022/05/07 03:57:19;;;;;;;0.10;0.10;;;7.70;34.60;6.60;97732.00;;;;5050841;28;20190;-69
2022/05/07 03:59:47;;;;;;;0.10;0.10;;;7.70;32.40;6.50;97727.00;;;;5051411;28;20198;-68
2022/05/07 04:02:17;;;;;;;0.10;0.10;;;7.70;18.70;6.50;97751.00;;;;5052832;28;20699;-69
2022/05/07 04:04:53;;;;;;;0.10;0.10;;;7.70;41.60;6.50;97739.00;;;;5046249;28;20221;-70
2022/05/07 04:07:22;;;;;;;0.10;0.10;;;7.60;54.70;6.60;97749.00;;;;5051155;28;20576;-70
2022/05/07 04:10:02;;;;;;;0.10;0.10;;;7.70;16.50;6.40;97755.00;;;;5067750;28;20201;-69
2022/05/07 04:12:35;;;;;;;0.10;0.10;;;7.60;45.40;6.40;97744.00;;;;5051223;28;20191;-69
2022/05/07 04:15:06;;;;;;;0.10;0.10;;;7.60;91.50;6.40;97754.00;;;;5067450;28;20230;-69
2022/05/07 04:17:37;;;;;;;0.10;0.10;;;7.50;94.70;6.40;97753.00;;;;5050478;28;20194;-69
2022/05/07 04:20:07;;;;;;;0.10;0.10;;;7.60;97.10;6.50;97758.00;;;;5066768;28;20672;-69
2022/05/07 04:22:38;;;;;;;0.10;0.10;;;7.50;95.10;6.50;97754.00;;;;5050776;28;20244;-69
2022/05/07 04:25:10;;;;;;;0.10;0.10;;;7.60;99.90;6.50;97754.00;;;;5050693;28;20312;-69
2022/05/07 04:27:42;;;;;;;0.10;0.10;;;7.60;94.00;6.50;97760.00;;;;5050552;28;20206;-70
2022/05/07 04:30:12;;;;;;;0.10;0.10;;;7.50;99.90;6.50;97758.00;;;;5050041;28;20198;-70
2022/05/07 04:32:41;;;;;;;0.10;0.10;;;7.70;95.50;6.50;97754.00;;;;5042823;28;20264;-69
2022/05/07 04:35:10;;;;;;;0.10;0.10;;;7.60;34.40;6.50;97765.00;;;;5050478;28;20616;-69
2022/05/07 04:37:39;;;;;;;0.10;0.10;;;7.70;63.00;6.50;97766.00;;;;5050019;28;20201;-69
2022/05/07 04:40:10;;;;;;;0.10;0.10;;;7.70;59.90;6.70;97756.00;;;;5067490;28;20213;-69
2022/05/07 04:42:42;;;;;;;0.10;0.10;;;7.80;62.10;6.60;97768.00;;;;5050575;28;20381;-69
2022/05/07 04:45:13;;;;;;;0.10;0.10;;;7.80;16.60;6.60;97715.00;;;;5067461;28;20214;-70
2022/05/07 04:48:09;;;;;;;0.10;0.10;;;7.80;11.30;6.70;97762.00;;;;5043378;28;20617;-69
2022/05/07 04:50:38;;;;;;;0.10;0.10;;;7.90;24.70;6.80;97768.00;;;;5048542;28;20242;-70
2022/05/07 04:53:22;;;;;;;0.10;0.10;;;7.90;99.90;6.80;97759.00;;;;5067316;28;20268;-69
2022/05/07 04:55:52;;;;;;;0.10;0.10;;;7.90;99.90;6.70;97770.00;;;;5050016;28;20238;-70
2022/05/07 04:58:22;;;;;;;0.10;0.10;;;7.80;99.90;6.80;97724.00;;;;5057493;28;20194;-69
2022/05/07 05:00:52;;;;;;;0.10;0.10;;;7.80;99.90;6.80;97783.00;;;;5051328;28;20186;-69
2022/05/07 05:03:25;;;;;;;0.10;0.10;;;7.90;99.90;6.90;97777.00;;;;5050767;28;20194;-70
2022/05/07 05:06:02;;;;;;;0.10;0.10;;;8.00;99.90;7.00;97770.00;;;;5050337;28;20226;-70
2022/05/07 05:09:02;;;;;;;0.10;0.10;;;8.10;99.90;7.10;97787.00;;;;5050671;28;20206;-71
2022/05/07 05:11:34;;;;;;;0.10;0.10;;;8.20;99.90;7.20;97792.00;;;;5048864;28;20552;-70
2022/05/07 05:15:01;;;;;;;0.10;0.10;;;8.30;99.90;7.30;97798.00;;;;5050477;28;20686;-70
2022/05/07 05:16:53;;;;;;;0.10;0.10;;;8.30;99.90;7.30;97780.00;;;;5066970;28;20218;-71
2022/05/07 05:19:23;;;;;;;0.10;0.10;;;8.30;99.90;7.30;97782.00;;;;5048552;28;20541;-71
2022/05/07 05:21:51;;;;;;;0.10;0.10;;;8.30;99.90;7.40;97781.00;;;;5054588;28;20195;-70
2022/05/07 05:24:24;;;;;;;0.10;0.10;;;8.40;99.90;7.50;97792.00;;;;5041123;28;20214;-71
2022/05/07 05:26:54;;;;;;;0.10;0.10;;;8.50;99.90;7.60;97777.00;;;;5050638;28;20241;-69
2022/05/07 05:29:27;;;;;;;0.10;0.10;;;8.50;99.90;7.60;97783.00;;;;5049580;28;20251;-70
2022/05/07 05:31:55;;;;;;;0.10;0.10;;;8.60;99.90;7.70;97782.00;;;;5063429;28;20199;-70
2022/05/07 05:34:33;;;;;;;0.10;0.10;;;8.70;99.90;7.70;97780.00;;;;5046600;28;20602;-71
2022/05/07 05:37:01;;;;;;;0.10;0.10;;;8.70;99.90;7.80;97771.00;;;;5044649;28;20226;-70
2022/05/07 05:39:35;;;;;;;0.10;0.10;;;8.80;99.90;7.90;97777.00;;;;5041128;28;20198;-70
2022/05/07 05:42:04;;;;;;;0.10;0.10;;;8.90;99.90;8.00;97783.00;;;;5047579;28;20293;-70
2022/05/07 05:44:38;;;;;;;0.10;0.10;;;9.00;99.90;8.10;97787.00;;;;5066709;28;20225;-70
2022/05/07 05:47:09;;;;;;;0.10;0.10;;;9.00;99.90;8.20;97773.00;;;;5049663;28;20214;-70
2022/05/07 05:49:38;;;;;;;0.10;0.10;;;9.10;99.90;8.30;97785.00;;;;5051201;28;20268;-70
2022/05/07 05:52:08;;;;;;;0.10;0.10;;;9.30;99.90;8.40;97789.00;;;;5062970;28;20221;-70
2022/05/07 05:54:38;;;;;;;0.00;0.00;;;9.40;99.90;8.50;97781.00;;;;5062250;28;20229;-69
2022/05/07 05:57:08;;;;;;;0.10;0.10;;;9.50;99.90;8.60;97785.00;;;;5049465;28;20233;-69
2022/05/07 05:59:40;;;;;;;0.10;0.10;;;9.60;99.90;8.80;97780.00;;;;5049024;28;20194;-72
2022/05/07 06:02:09;;;;;;;0.10;0.10;;;9.70;99.90;8.90;97806.00;;;;5061561;28;20203;-71
2022/05/07 06:04:43;;;;;;;0.10;0.10;;;9.90;99.90;9.00;97798.00;;;;5061664;28;20248;-72
2022/05/07 06:07:18;;;;;;;0.10;0.10;;;10.00;99.90;9.20;97799.00;;;;5052163;28;20216;-71
2022/05/07 06:09:46;;;;;;;0.10;0.10;;;10.10;99.90;9.30;97809.00;;;;5047085;28;20195;-69
2022/05/07 06:12:21;;;;;;;0.10;0.10;;;10.20;99.90;9.40;97806.00;;;;5070691;28;20181;-72
2022/05/07 06:14:54;;;;;;;0.10;0.10;;;10.30;99.90;9.50;97799.00;;;;5070489;28;20206;-72
2022/05/07 06:17:26;;;;;;;0.10;0.10;;;10.40;99.90;9.70;97812.00;;;;5085941;28;20264;-71
2022/05/07 06:19:57;;;;;;;0.00;0.00;;;10.60;71.80;9.80;97801.00;;;;5069461;28;20202;-71
2022/05/07 06:22:25;;;;;;;0.10;0.10;;;10.70;7.80;9.90;97803.00;;;;5084545;28;20183;-70
2022/05/07 06:27:53;;;;;;;0.10;0.10;;;10.90;1.00;10.10;97806.00;;;;5086033;28;20214;-70
2022/05/07 06:30:32;;;;;;;0.10;0.10;;;11.00;1.00;10.20;97808.00;;;;5063357;28;20244;-70
2022/05/07 06:33:00;;;;;;;0.10;0.10;;;11.10;1.00;10.40;97807.00;;;;5063953;28;20202;-69
2022/05/07 06:35:36;;;;;;;0.10;0.10;;;11.20;1.00;10.50;97804.00;;;;5049439;28;20217;-69
2022/05/07 06:38:09;;;;;;;0.10;0.10;;;11.40;1.00;10.60;97801.00;;;;5050691;28;20206;-70
2022/05/07 06:40:38;;;;;;;0.10;0.10;;;11.50;1.00;10.80;97811.00;;;;5065596;28;20285;-70
2022/05/07 06:43:07;;;;;;;0.10;0.10;;;11.60;1.00;10.90;97809.00;;;;5049170;28;20538;-70
2022/05/07 06:46:04;;;;;;;0.10;0.10;;;11.70;1.00;11.10;97810.00;;;;5031788;28;20231;-70
2022/05/07 06:48:38;;;;;;;0.10;0.10;;;11.90;1.00;11.20;97802.00;;;;5049079;28;20230;-70
2022/05/07 06:51:13;;;;;;;0.10;0.10;;;12.00;1.00;11.40;97802.00;;;;5048923;28;20575;-70
2022/05/07 06:53:41;;;;;;;0.10;0.10;;;12.20;1.00;11.60;97816.00;;;;5074167;28;20289;-70
2022/05/07 06:56:09;;;;;;;0.10;0.10;;;12.40;1.00;11.70;97806.00;;;;5050267;28;20225;-70
2022/05/07 06:58:38;;;;;;;0.10;0.10;;;12.50;99.90;11.80;97802.00;;;;5050144;28;20202;-71
2022/05/07 07:01:06;;;;;;;0.10;0.10;;;12.60;99.90;11.80;97815.00;;;;5050643;28;20206;-70
2022/05/07 07:03:34;;;;;;;0.10;0.10;;;12.70;35.70;11.90;97808.00;;;;5049799;28;20558;-69
2022/05/07 07:06:02;;;;;;;0.10;0.10;;;12.80;99.90;12.10;97801.00;;;;5042565;28;20226;-70
2022/05/07 07:08:32;;;;;;;0.10;0.10;;;12.90;1.00;12.30;97797.00;;;;5047803;28;20272;-70
2022/05/07 07:11:00;;;;;;;0.10;0.10;;;13.10;1.00;12.40;97803.00;;;;5050786;28;20202;-70
2022/05/07 07:13:28;;;;;;;0.10;0.10;;;13.20;99.90;12.50;97805.00;;;;5050541;28;20195;-70
2022/05/07 07:15:56;;;;;;;0.05;0.05;;;13.30;99.90;12.80;97807.00;;;;5054961;28;20222;-70
2022/05/07 07:18:25;;;;;;;0.10;0.10;;;13.60;1.00;13.10;97801.00;;;;5042154;28;20235;-70
2022/05/07 07:20:53;;;;;;;0.00;0.00;;;13.80;1.00;13.30;97810.00;;;;5049135;28;20195;-71
2022/05/07 07:23:20;;;;;;;0.00;0.00;;;14.00;99.90;13.40;97809.00;;;;5054061;28;20195;-71
2022/05/07 07:25:50;;;;;;;0.10;0.10;;;14.10;99.90;13.60;97816.00;;;;5053796;28;20211;-72
2022/05/07 07:28:18;;;;;;;0.10;0.10;;;14.30;1.00;13.70;97806.00;;;;5042901;28;20222;-70
2022/05/07 07:30:46;;;;;;;0.00;0.00;;;14.40;1.00;13.90;97804.00;;;;5042893;28;20203;-70
2022/05/07 07:33:14;;;;;;;0.03;0.03;;;14.60;99.90;14.10;97807.00;;;;5054208;28;20659;-70
2022/05/07 07:35:43;;;;;;;0.00;0.00;;;14.80;1.00;14.40;97799.00;;;;5052835;28;20635;-70
2022/05/07 07:38:12;;;;;;;0.10;0.10;;;15.00;1.00;14.50;97811.00;;;;5055766;28;20195;-70
2022/05/07 07:40:40;;;;;;;0.08;0.08;;;15.10;1.00;14.70;97810.00;;;;5052009;28;20194;-70
2022/05/07 07:43:10;;;;;;;0.00;0.00;;;15.30;1.00;14.90;97794.00;;;;5052729;28;20193;-69
2022/05/07 07:48:24;;;;;;;0.00;0.00;;;15.70;1.00;15.40;97810.00;;;;5050934;28;20222;-70
2022/05/07 07:50:53;;;;;;;0.00;0.00;;;16.00;44.50;15.60;97806.00;;;;5055092;28;20244;-70
2022/05/07 07:53:22;;;;;;;0.08;0.08;;;16.10;99.90;15.80;97812.00;;;;5052701;28;20191;-70
2022/05/07 07:55:52;;;;;;;0.05;0.05;;;16.30;1.00;16.00;97808.00;;;;5051449;28;20252;-70
2022/05/07 07:58:23;;;;;;;0.03;0.03;;;16.50;99.90;16.30;97805.00;;;;5067660;28;20195;-71
2022/05/07 08:00:52;;;;;;;0.00;0.00;;;16.80;1.00;16.30;97794.00;;;;5051572;28;20198;-71
2022/05/07 08:03:21;;;;;;;0.00;0.00;;;16.80;1.00;16.50;97807.00;;;;5064772;28;20197;-70
2022/05/07 08:05:53;;;;;;;0.00;0.00;;;17.10;1.00;16.80;97809.00;;;;5053493;28;20229;-72
2022/05/07 08:13:55;;;;;;;0.00;0.00;;;17.70;1.00;17.40;97809.00;;;;5053682;28;20210;-71
2022/05/07 08:16:25;;;;;;;0.05;0.05;;;17.90;99.90;17.60;97805.00;;;;5041781;28;20217;-70
2022/05/07 08:18:53;;;;;;;0.00;0.00;;;18.10;99.90;17.90;97805.00;;;;5052048;28;20222;-70
2022/05/07 08:21:21;;;;;;;0.00;0.00;;;18.30;99.90;18.00;97809.00;;;;5043696;28;20190;-70
2022/05/07 08:23:50;;;;;;;0.00;0.00;;;18.50;99.90;18.20;97814.00;;;;5043555;28;20271;-70
2022/05/07 08:26:18;;;;;;;0.00;0.00;;;18.70;99.90;18.40;97805.00;;;;5057398;28;20249;-71
2022/05/07 08:28:46;;;;;;;0.00;0.00;;;18.80;99.90;18.60;97814.00;;;;5052724;28;20229;-71
2022/05/07 08:31:15;;;;;;;0.00;0.00;;;19.00;99.90;18.70;97817.00;;;;5053151;28;20202;-71
2022/05/07 08:33:43;;;;;;;0.00;0.00;;;19.20;99.90;18.80;97807.00;;;;5052894;28;20186;-70
2022/05/07 08:36:12;;;;;;;0.00;0.00;;;19.30;99.90;19.00;97810.00;;;;5050793;28;20226;-70
2022/05/07 08:38:42;;;;;;;0.00;0.00;;;19.40;99.90;19.00;97819.00;;;;5047109;28;20540;-71
2022/05/07 08:41:11;;;;;;;0.00;0.00;;;19.50;1.00;19.00;97836.00;;;;5051292;28;20571;-71
2022/05/07 08:43:42;;;;;;;0.00;0.00;;;19.60;1.00;19.10;97832.00;;;;5066081;28;20205;-71
2022/05/07 08:46:14;;;;;;;0.00;0.00;;;19.60;1.00;19.20;97871.00;;;;5038439;28;20264;-71
2022/05/07 08:48:47;;;;;;;0.00;0.00;;;19.70;1.00;19.40;97818.00;;;;5040732;28;20261;-71
2022/05/07 08:51:17;;;;;;;0.00;0.00;;;19.90;1.00;19.40;97813.00;;;;5052394;28;20252;-70
2022/05/07 08:53:48;;;;;;;0.00;0.00;;;19.90;1.00;19.60;97813.00;;;;5052550;28;20220;-71
2022/05/07 08:56:17;;;;;;;0.00;0.00;;;20.10;1.00;19.50;97813.00;;;;5051724;28;20211;-71
2022/05/07 08:58:49;;;;;;;0.00;0.00;;;20.10;1.00;19.70;97772.00;;;;5040143;28;20297;-71
2022/05/07 09:01:18;;;;;;;0.00;0.00;;;20.20;1.00;20.00;97887.00;;;;5051576;28;20285;-72
2022/05/07 09:03:49;;;;;;;0.00;0.00;;;20.40;1.00;20.10;97823.00;;;;5051113;28;20626;-71
2022/05/07 09:06:22;;;;;;;0.00;0.00;;;20.60;92.10;20.30;97826.00;;;;5036728;28;20575;-73
2022/05/07 09:08:52;;;;;;;0.00;0.00;;;20.70;92.70;20.30;97825.00;;;;5054316;28;20221;-71
2022/05/07 09:11:22;;;;;;;0.00;0.00;;;20.80;93.30;20.30;97838.00;;;;5056735;28;20203;-71
2022/05/07 09:14:04;;;;;;;0.00;0.00;;;20.90;93.60;20.50;97835.00;;;;5066014;28;20297;-72
2022/05/07 09:16:45;;;;;;;0.00;0.00;;;21.00;94.20;20.80;97827.00;;;;5057080;28;20198;-72
2022/05/07 09:19:27;;;;;;;0.00;0.00;;;21.20;93.40;21.00;97825.00;;;;5056704;28;20194;-71
2022/05/07 09:22:05;;;;;;;0.00;0.00;;;21.40;92.60;21.10;97829.00;;;;5054950;28;20221;-71
2022/05/07 09:24:35;;;;;;;0.00;0.00;;;21.50;92.70;21.00;97816.00;;;;5048546;28;20264;-71
2022/05/07 09:27:04;;;;;;;0.00;0.00;;;21.40;92.50;20.60;97816.00;;;;5046999;28;20209;-71
2022/05/07 09:29:34;;;;;;;0.00;0.00;;;21.10;92.80;20.50;97830.00;;;;5043573;28;20232;-71
2022/05/07 09:32:09;;;;;;;0.00;0.00;;;21.00;93.10;20.60;97829.00;;;;5050292;28;20205;-72
2022/05/07 09:37:39;;;;;;;0.00;0.00;;;21.30;91.80;20.90;97829.00;;;;5049204;28;20217;-73
2022/05/07 09:40:10;;;;;;;0.00;0.00;;;21.30;92.10;21.10;97831.00;;;;5051275;28;20259;-73
2022/05/07 09:42:39;;;;;;;0.00;0.00;;;21.50;91.80;21.20;97833.00;;;;5048138;28;20204;-71
2022/05/07 09:45:08;;;;;;;0.00;0.00;;;21.60;91.10;21.10;97762.00;;;;5036400;28;20705;-71
2022/05/07 09:47:38;;;;;;;0.00;0.00;;;21.70;90.70;20.90;97802.00;;;;5050206;28;20199;-71
2022/05/07 09:50:24;;;;;;;0.00;0.00;;;21.50;90.60;20.80;97807.00;;;;5051019;28;20206;-71
2022/05/07 09:58:26;;;;;;;0.00;0.00;;;21.60;90.60;20.90;97807.00;;;;5052741;28;20203;-71
2022/05/07 10:01:22;;;;;;;0.00;0.00;;;21.40;90.70;21.10;97800.00;;;;5056145;28;20206;-71
2022/05/07 10:04:13;;;;;;;0.00;0.00;;;21.50;91.10;21.10;97799.00;;;;5041964;28;20202;-71
2022/05/07 10:06:58;;;;;;;0.00;0.00;;;21.60;89.40;21.60;97803.00;;;;5052536;28;20186;-71
2022/05/07 10:09:43;;;;;;;0.00;0.00;;;21.90;90.20;21.80;97802.00;;;;5049308;28;20221;-70
2022/05/07 10:12:19;;;;;;;0.00;0.00;;;22.10;89.00;21.10;97784.00;;;;5052368;28;20201;-70
2022/05/07 10:14:47;;;;;;;0.00;0.00;;;21.90;88.10;21.00;97791.00;;;;5050468;28;20221;-72
2022/05/07 10:17:16;;;;;;;0.00;0.00;;;21.80;90.00;21.20;97795.00;;;;5033862;28;20241;-70
2022/05/07 10:19:50;;;;;;;0.00;0.00;;;21.70;90.60;21.10;97790.00;;;;5049557;28;20209;-71
2022/05/07 10:22:23;;;;;;;0.00;0.00;;;21.60;90.10;21.50;97784.00;;;;5051128;28;20199;-71
2022/05/07 10:25:06;;;;;;;0.00;0.00;;;21.80;89.00;21.70;97788.00;;;;5050109;28;20214;-70
2022/05/07 10:27:36;;;;;;;0.00;0.00;;;22.00;88.80;22.20;97792.00;;;;5064170;28;20202;-70
2022/05/07 10:30:09;;;;;;;0.00;0.00;;;22.40;90.10;22.60;97801.00;;;;5046911;28;20211;-71
2022/05/07 10:33:03;;;;;;;0.00;0.00;;;22.70;88.90;22.30;97794.00;;;;5037750;28;20199;-71
2022/05/07 10:35:43;;;;;;;0.00;0.00;;;22.80;87.20;21.90;97789.00;;;;5032089;28;20234;-70
2022/05/07 10:38:15;;;;;;;0.00;0.00;;;22.50;88.30;21.90;97792.00;;;;5051132;28;20198;-72
2022/05/07 10:40:55;;;;;;;0.00;0.00;;;22.40;89.20;21.80;97799.00;;;;5039146;28;20195;-70
2022/05/07 10:43:32;;;;;;;0.00;0.00;;;22.30;89.20;21.00;97778.00;;;;5049583;28;20201;-69
2022/05/07 10:46:03;;;;;;;0.00;0.00;;;21.70;89.10;21.00;97789.00;;;;5047548;28;20226;-70
2022/05/07 10:48:43;;;;;;;0.00;0.00;;;21.70;90.10;21.10;97781.00;;;;5035409;28;20253;-72
2022/05/07 10:51:19;;;;;;;0.00;0.00;;;21.60;90.00;20.80;97789.00;;;;5053621;28;20194;-72
2022/05/07 10:53:50;;;;;;;0.00;0.00;;;21.50;90.20;21.40;97786.00;;;;5039435;28;20585;-73
2022/05/07 10:56:20;;;;;;;0.00;0.00;;;21.70;89.20;21.80;97768.00;;;;5052681;28;20237;-71
2022/05/07 10:58:50;;;;;;;0.00;0.00;;;22.00;89.10;22.30;97794.00;;;;5047719;28;20277;-73
2022/05/07 11:01:21;;;;;;;0.00;0.00;;;22.40;88.20;22.20;97774.00;;;;5054709;28;20201;-70
2022/05/07 11:04:04;;;;;;;0.00;0.00;;;22.50;86.30;22.50;97785.00;;;;5059010;28;20617;-71
2022/05/07 11:06:33;;;;;;;0.00;0.00;;;22.80;85.90;22.50;97789.00;;;;5042430;28;20198;-71
2022/05/07 11:09:03;;;;;;;0.00;0.00;;;22.90;86.80;22.80;97783.00;;;;5053881;28;20696;-73
2022/05/07 11:11:31;;;;;;;0.00;0.00;;;23.00;86.20;23.20;97785.00;;;;5052961;28;20218;-71
2022/05/07 11:13:59;;;;;;;0.00;0.00;;;23.30;85.90;22.60;97777.00;;;;5054622;28;20212;-70
2022/05/07 11:16:27;;;;;;;0.00;0.00;;;23.10;85.80;22.40;97783.00;;;;5053603;28;20280;-72
2022/05/07 11:18:55;;;;;;;0.00;0.00;;;23.10;85.30;22.80;97777.00;;;;5058602;28;20713;-72
2022/05/07 11:21:26;;;;;;;0.00;0.00;;;23.10;85.60;22.80;97788.00;;;;5054567;28;20874;-72
2022/05/07 11:23:54;;;;;;;0.00;0.00;;;23.10;85.90;22.50;97776.00;;;;5050470;28;20190;-70
2022/05/07 11:26:25;;;;;;;0.00;0.00;;;23.00;85.40;22.70;97780.00;;;;5058061;28;20213;-72
2022/05/07 11:28:53;;;;;;;0.00;0.00;;;23.00;85.90;22.40;97762.00;;;;5064422;28;20234;-71
2022/05/07 11:31:29;;;;;;;0.00;0.00;;;22.90;84.60;22.50;97770.00;;;;5036969;28;20199;-72
2022/05/07 11:34:06;;;;;;;0.00;0.00;;;22.90;85.30;22.40;97757.00;;;;5038245;28;20212;-70
2022/05/07 11:36:35;;;;;;;0.00;0.00;;;22.90;85.00;23.00;97759.00;;;;5036683;28;20222;-69
2022/05/07 11:39:06;;;;;;;0.00;0.00;;;23.20;86.00;23.50;97765.00;;;;5052494;28;20198;-70
2022/05/07 11:41:37;;;;;;;0.00;0.00;;;23.60;84.80;24.00;97751.00;;;;5048381;28;20190;-70
2022/05/07 11:47:22;;;;;;;0.00;0.00;;;24.40;82.90;24.20;97757.00;;;;5067297;28;20207;-70
2022/05/07 11:50:06;;;;;;;0.00;0.00;;;24.50;81.20;22.90;97756.00;;;;5055568;28;20630;-70
2022/05/07 11:52:34;;;;;;;0.00;0.00;;;23.70;81.50;23.30;97754.00;;;;5053163;28;20719;-69
2022/05/07 11:55:07;;;;;;;0.00;0.00;;;23.70;82.00;23.60;97745.00;;;;5041886;28;20620;-69
2022/05/07 11:57:37;;;;;;;0.00;0.00;;;23.90;82.20;23.40;97752.00;;;;5033182;28;20207;-69